Time;durP1;ratioP1;P1;durP2;ratioP2;P2;SDS_P1;SDS_P2;PMS_P1;PMS_P2;Temp;Humidity;BMP_temperature;BMP_pressure;BME280_temperature;BME280_humidity;BME280_pressure;Samples;Min_cycle;Max_cycle;Signal;HPM_P1;HPM_P2
2023/11/27 00:02:28;;;;;;;4.60;2.35;;;;;;;;;;10369579;28;20066;-82
2023/11/27 00:07:32;;;;;;;4.70;1.80;;;;;;;;;;10381714;28;20069;-83
2023/11/27 00:12:36;;;;;;;4.90;2.05;;;;;;;;;;10380241;28;20400;-83
2023/11/27 00:17:40;;;;;;;3.72;1.70;;;;;;;;;;10384394;28;20053;-82
2023/11/27 00:22:43;;;;;;;7.15;2.75;;;;;;;;;;10366301;28;20045;-83
2023/11/27 00:27:48;;;;;;;7.78;2.20;;;;;;;;;;10376919;28;20108;-81
2023/11/27 00:32:51;;;;;;;3.08;1.60;;;;;;;;;;10366956;28;20474;-82
2023/11/27 00:37:55;;;;;;;4.75;1.98;;;;;;;;;;10350202;28;20172;-82
2023/11/27 00:42:59;;;;;;;5.18;2.72;;;;;;;;;;10349673;28;20116;-82
2023/11/27 00:48:03;;;;;;;4.70;2.72;;;;;;;;;;10341240;28;20092;-82
2023/11/27 00:53:06;;;;;;;4.43;2.05;;;;;;;;;;10350057;28;20050;-82
2023/11/27 00:58:11;;;;;;;7.05;2.35;;;;;;;;;;10351445;28;20138;-82
2023/11/27 01:03:14;;;;;;;1.73;1.30;;;;;;;;;;10358665;28;20076;-82
2023/11/27 01:08:17;;;;;;;3.75;1.65;;;;;;;;;;10349157;28;20050;-82
2023/11/27 01:13:22;;;;;;;2.40;1.58;;;;;;;;;;10342595;28;20050;-83
2023/11/27 01:18:25;;;;;;;3.33;1.60;;;;;;;;;;10356620;28;20050;-82
2023/11/27 01:23:29;;;;;;;2.58;1.67;;;;;;;;;;10347693;28;20050;-83
2023/11/27 01:28:36;;;;;;;6.63;2.25;;;;;;;;;;10366497;28;20128;-83
2023/11/27 01:33:39;;;;;;;2.47;1.48;;;;;;;;;;10354142;28;20049;-81
2023/11/27 01:38:42;;;;;;;3.08;1.50;;;;;;;;;;10347984;28;20051;-82
2023/11/27 01:43:47;;;;;;;1.50;1.05;;;;;;;;;;10333080;28;20046;-82
2023/11/27 01:48:51;;;;;;;1.95;0.90;;;;;;;;;;10343717;28;20042;-82
2023/11/27 01:53:57;;;;;;;1.83;0.85;;;;;;;;;;10360283;28;20046;-82
2023/11/27 01:59:02;;;;;;;1.77;1.10;;;;;;;;;;10349422;28;20623;-83
2023/11/27 02:04:05;;;;;;;3.40;1.20;;;;;;;;;;10356916;28;20050;-82
2023/11/27 02:09:10;;;;;;;2.67;1.05;;;;;;;;;;10374702;28;20042;-82
2023/11/27 02:14:15;;;;;;;2.80;1.40;;;;;;;;;;10376799;28;20574;-82
2023/11/27 02:19:19;;;;;;;2.63;1.10;;;;;;;;;;10378536;28;20038;-82
2023/11/27 02:24:24;;;;;;;3.25;1.23;;;;;;;;;;10345705;28;20667;-82
2023/11/27 02:29:27;;;;;;;2.72;1.02;;;;;;;;;;10343793;28;20107;-82
2023/11/27 02:34:31;;;;;;;2.92;1.10;;;;;;;;;;10345704;28;20100;-82
2023/11/27 02:39:36;;;;;;;2.30;1.25;;;;;;;;;;10360975;28;20535;-82
2023/11/27 02:44:39;;;;;;;2.35;1.00;;;;;;;;;;10335408;28;20081;-82
2023/11/27 02:49:42;;;;;;;0.93;0.75;;;;;;;;;;10349713;28;20074;-82
2023/11/27 02:54:47;;;;;;;3.08;1.45;;;;;;;;;;10324780;28;20141;-83
2023/11/27 02:59:51;;;;;;;2.65;1.40;;;;;;;;;;10338861;28;20046;-82
2023/11/27 03:04:54;;;;;;;1.58;0.93;;;;;;;;;;10340412;28;20507;-82
2023/11/27 03:09:59;;;;;;;4.25;1.50;;;;;;;;;;10345852;28;20077;-82
2023/11/27 03:15:03;;;;;;;1.50;1.08;;;;;;;;;;10347640;28;20209;-82
2023/11/27 03:20:08;;;;;;;3.80;1.33;;;;;;;;;;10353917;28;20046;-82
2023/11/27 03:25:13;;;;;;;1.55;0.95;;;;;;;;;;10349867;28;20060;-82
2023/11/27 03:30:19;;;;;;;4.57;1.30;;;;;;;;;;10354246;28;20046;-82
2023/11/27 03:35:22;;;;;;;1.63;0.97;;;;;;;;;;10348496;28;20050;-82
2023/11/27 03:40:27;;;;;;;2.42;1.00;;;;;;;;;;10348885;28;20038;-82
2023/11/27 03:45:30;;;;;;;1.92;1.00;;;;;;;;;;10371924;28;20108;-82
2023/11/27 03:50:34;;;;;;;2.10;1.08;;;;;;;;;;10351339;28;20050;-82
2023/11/27 03:55:39;;;;;;;1.58;1.10;;;;;;;;;;10376832;28;20092;-82
2023/11/27 04:00:42;;;;;;;2.83;1.00;;;;;;;;;;10345052;28;20042;-82
2023/11/27 04:05:47;;;;;;;4.47;1.02;;;;;;;;;;10357416;28;20046;-82
2023/11/27 04:10:54;;;;;;;1.73;0.75;;;;;;;;;;10361067;28;20092;-81
2023/11/27 04:15:57;;;;;;;1.80;1.00;;;;;;;;;;10346613;28;20061;-82
2023/11/27 04:21:01;;;;;;;2.58;1.30;;;;;;;;;;10364444;28;20104;-83
2023/11/27 04:26:06;;;;;;;3.45;1.42;;;;;;;;;;10363811;28;20046;-81
2023/11/27 04:31:10;;;;;;;3.95;1.52;;;;;;;;;;10356046;28;20054;-82
2023/11/27 04:36:17;;;;;;;3.92;1.40;;;;;;;;;;10347066;28;20053;-82
2023/11/27 04:41:23;;;;;;;1.95;1.30;;;;;;;;;;10368135;28;20080;-82
2023/11/27 04:46:26;;;;;;;1.45;1.00;;;;;;;;;;10351722;28;20046;-82
2023/11/27 04:51:31;;;;;;;2.33;1.10;;;;;;;;;;10368467;28;20073;-82
2023/11/27 04:56:36;;;;;;;2.53;1.38;;;;;;;;;;10349078;28;20056;-83
2023/11/27 05:01:39;;;;;;;2.33;0.80;;;;;;;;;;10363427;28;20065;-83
2023/11/27 05:06:43;;;;;;;3.58;1.15;;;;;;;;;;10361106;28;20124;-86
2023/11/27 05:11:47;;;;;;;1.48;1.15;;;;;;;;;;10363201;28;20487;-85
2023/11/27 05:16:52;;;;;;;1.27;0.90;;;;;;;;;;10355748;28;20042;-86
2023/11/27 05:21:55;;;;;;;4.28;1.58;;;;;;;;;;10332644;28;20054;-86
2023/11/27 05:27:00;;;;;;;8.93;2.47;;;;;;;;;;10341502;28;20647;-86
2023/11/27 05:32:08;;;;;;;3.65;2.03;;;;;;;;;;10335892;28;20897;-86
2023/11/27 05:37:12;;;;;;;4.22;1.73;;;;;;;;;;10355280;28;20054;-87
2023/11/27 05:42:20;;;;;;;3.30;1.58;;;;;;;;;;10357026;28;20510;-86
2023/11/27 05:47:24;;;;;;;2.53;1.40;;;;;;;;;;10344248;28;20049;-83
2023/11/27 05:52:31;;;;;;;3.67;1.70;;;;;;;;;;10374582;28;20680;-83
2023/11/27 05:57:35;;;;;;;7.85;2.58;;;;;;;;;;10361032;28;20061;-83
2023/11/27 06:02:39;;;;;;;5.57;2.30;;;;;;;;;;10373274;28;20042;-83
2023/11/27 06:07:44;;;;;;;3.60;2.22;;;;;;;;;;10383294;28;20073;-83
2023/11/27 06:12:50;;;;;;;5.30;2.65;;;;;;;;;;10363165;28;20097;-82
2023/11/27 06:17:53;;;;;;;3.35;1.95;;;;;;;;;;10380907;28;20435;-83
2023/11/27 06:22:57;;;;;;;3.75;1.90;;;;;;;;;;10378200;28;20046;-83
2023/11/27 06:28:04;;;;;;;;;;;;;;;;;;10348033;28;20046;-82
2023/11/27 06:33:08;;;;;;;1.92;1.40;;;;;;;;;;10358576;28;19918;-83
2023/11/27 06:38:11;;;;;;;3.85;1.30;;;;;;;;;;10355965;28;20754;-83
2023/11/27 06:43:17;;;;;;;2.78;1.20;;;;;;;;;;10355439;28;20078;-82
2023/11/27 06:48:23;;;;;;;3.08;1.30;;;;;;;;;;10358799;28;20046;-84
2023/11/27 06:53:27;;;;;;;4.78;1.80;;;;;;;;;;10364804;28;20159;-81
2023/11/27 06:58:32;;;;;;;2.15;1.65;;;;;;;;;;10371720;28;20058;-82
2023/11/27 07:03:35;;;;;;;6.05;1.85;;;;;;;;;;10359379;28;20046;-82
2023/11/27 07:08:38;;;;;;;2.80;1.80;;;;;;;;;;10351706;28;20050;-83
2023/11/27 07:13:47;;;;;;;4.00;2.45;;;;;;;;;;10365644;28;20054;-83
2023/11/27 07:18:50;;;;;;;4.90;2.78;;;;;;;;;;10370794;28;20053;-83
2023/11/27 07:23:54;;;;;;;4.15;2.10;;;;;;;;;;10367406;28;20057;-82
2023/11/27 07:29:03;;;;;;;3.53;2.25;;;;;;;;;;10357222;28;20042;-83
2023/11/27 07:34:06;;;;;;;3.47;2.08;;;;;;;;;;10371164;28;20077;-83
2023/11/27 07:39:10;;;;;;;4.78;2.42;;;;;;;;;;10357847;28;20057;-82
2023/11/27 07:44:17;;;;;;;4.00;2.00;;;;;;;;;;10357850;28;20121;-82
2023/11/27 07:49:20;;;;;;;4.25;2.25;;;;;;;;;;10373154;28;20060;-83
2023/11/27 07:54:24;;;;;;;5.70;2.70;;;;;;;;;;10363395;28;20058;-82
2023/11/27 07:59:31;;;;;;;3.67;2.47;;;;;;;;;;10377123;28;20042;-83
2023/11/27 08:04:37;;;;;;;3.58;2.10;;;;;;;;;;10378907;28;20431;-84
2023/11/27 08:09:41;;;;;;;3.78;1.98;;;;;;;;;;10370004;28;20050;-83
2023/11/27 08:14:46;;;;;;;2.58;1.58;;;;;;;;;;10379280;28;20055;-84
2023/11/27 08:19:49;;;;;;;2.65;1.80;;;;;;;;;;10360011;28;20065;-84
2023/11/27 08:25:02;;;;;;;3.25;1.98;;;;;;;;;;10371963;28;20108;-84
2023/11/27 08:30:10;;;;;;;2.08;1.88;;;;;;;;;;10362933;28;20077;-86
2023/11/27 08:35:17;;;;;;;2.17;1.85;;;;;;;;;;10354491;28;20061;-84
2023/11/27 08:40:21;;;;;;;2.08;1.80;;;;;;;;;;10338252;28;20298;-85
2023/11/27 08:45:28;;;;;;;2.40;1.60;;;;;;;;;;10337939;28;20046;-84
2023/11/27 08:50:35;;;;;;;1.88;1.70;;;;;;;;;;10357357;28;20108;-82
2023/11/27 08:55:38;;;;;;;3.22;1.85;;;;;;;;;;10355503;28;20097;-85
2023/11/27 09:00:45;;;;;;;2.97;1.75;;;;;;;;;;10353542;28;20077;-86
2023/11/27 09:05:49;;;;;;;2.65;1.70;;;;;;;;;;10337044;28;20074;-85
2023/11/27 09:10:52;;;;;;;2.53;1.88;;;;;;;;;;10357818;28;20071;-86
2023/11/27 09:16:00;;;;;;;1.70;1.38;;;;;;;;;;10338394;28;20058;-85
2023/11/27 09:21:04;;;;;;;1.75;1.35;;;;;;;;;;10357323;28;20054;-85
2023/11/27 09:26:08;;;;;;;4.45;2.30;;;;;;;;;;10346884;28;20050;-87
2023/11/27 09:31:15;;;;;;;2.40;1.65;;;;;;;;;;10364956;28;20105;-85
2023/11/27 09:36:18;;;;;;;;;;;;;;;;;;10346145;28;20081;-85
2023/11/27 09:41:21;;;;;;;2.42;1.65;;;;;;;;;;10347244;28;19968;-86
2023/11/27 09:46:29;;;;;;;3.20;2.38;;;;;;;;;;10345908;28;20145;-86
2023/11/27 09:51:34;;;;;;;2.20;1.83;;;;;;;;;;10362020;28;20046;-85
2023/11/27 09:56:37;;;;;;;3.15;1.90;;;;;;;;;;10375018;22;20499;-78
2023/11/27 10:01:44;;;;;;;1.92;1.60;;;;;;;;;;10366014;28;20057;-79
2023/11/27 10:06:48;;;;;;;;;;;;;;;;;;10312014;28;20062;-78
2023/11/27 10:11:52;;;;;;;1.20;1.10;;;;;;;;;;10324937;28;19977;-78
2023/11/27 10:16:59;;;;;;;1.20;1.10;;;;;;;;;;10327166;28;20094;-78
2023/11/27 10:22:03;;;;;;;1.17;1.08;;;;;;;;;;10326961;28;20050;-77
2023/11/27 10:27:08;;;;;;;1.35;1.20;;;;;;;;;;10329357;28;20053;-77
2023/11/27 10:32:13;;;;;;;1.20;1.10;;;;;;;;;;10328718;28;20049;-77
2023/11/27 10:37:16;;;;;;;1.35;1.20;;;;;;;;;;10325052;28;20046;-78
2023/11/27 10:42:24;;;;;;;1.50;1.10;;;;;;;;;;10320833;28;20038;-77
2023/11/27 10:47:29;;;;;;;0.93;0.90;;;;;;;;;;10320026;28;20054;-78
2023/11/27 10:52:33;;;;;;;0.95;0.88;;;;;;;;;;10321910;28;20097;-77
2023/11/27 10:57:39;;;;;;;1.10;0.80;;;;;;;;;;10317157;28;20638;-78
2023/11/27 11:02:49;;;;;;;0.82;0.82;;;;;;;;;;10327640;28;20094;-78
2023/11/27 11:07:55;;;;;;;1.05;0.90;;;;;;;;;;10324218;28;20444;-78
2023/11/27 11:13:00;;;;;;;0.95;0.85;;;;;;;;;;10328819;28;20050;-78
2023/11/27 11:18:10;;;;;;;0.80;0.80;;;;;;;;;;10325537;28;20089;-78
2023/11/27 11:23:28;;;;;;;0.80;0.70;;;;;;;;;;10319881;28;20102;-78
2023/11/27 11:28:39;;;;;;;1.25;1.00;;;;;;;;;;10324690;28;20053;-78
2023/11/27 11:33:43;;;;;;;0.98;0.90;;;;;;;;;;10319498;28;20092;-78
2023/11/27 11:38:48;;;;;;;0.70;0.70;;;;;;;;;;10318372;28;20490;-77
2023/11/27 11:43:52;;;;;;;1.10;0.70;;;;;;;;;;10315244;28;20066;-77
2023/11/27 11:49:02;;;;;;;0.85;0.82;;;;;;;;;;10302559;28;20566;-78
2023/11/27 11:54:09;;;;;;;0.60;0.60;;;;;;;;;;10331911;28;20053;-78
2023/11/27 11:59:16;;;;;;;0.60;0.60;;;;;;;;;;10327918;28;20058;-77
2023/11/27 12:04:22;;;;;;;;;;;;;;;;;;10325076;28;20050;-77
2023/11/27 12:09:25;;;;;;;0.70;0.70;;;;;;;;;;10324564;28;20294;-77
2023/11/27 12:14:32;;;;;;;0.60;0.60;;;;;;;;;;10320097;28;20089;-77
2023/11/27 12:19:37;;;;;;;0.60;0.60;;;;;;;;;;10317404;28;20171;-76
2023/11/27 12:24:47;;;;;;;0.63;0.52;;;;;;;;;;10319575;28;20101;-76
2023/11/27 12:29:51;;;;;;;0.45;0.45;;;;;;;;;;10318661;28;20053;-76
2023/11/27 12:34:56;;;;;;;0.55;0.55;;;;;;;;;;10316258;28;20455;-76
2023/11/27 12:39:59;;;;;;;1.52;0.70;;;;;;;;;;10320715;28;20062;-76
2023/11/27 12:45:06;;;;;;;0.77;0.63;;;;;;;;;;10323777;28;20200;-76
2023/11/27 12:50:22;;;;;;;0.50;0.50;;;;;;;;;;10322803;28;20058;-76
2023/11/27 12:55:30;;;;;;;0.57;0.57;;;;;;;;;;10323859;28;20428;-76
2023/11/27 13:00:34;;;;;;;0.47;0.47;;;;;;;;;;10331717;28;20141;-76
2023/11/27 13:05:39;;;;;;;0.52;0.52;;;;;;;;;;10329273;28;20539;-76
2023/11/27 13:10:43;;;;;;;0.40;0.40;;;;;;;;;;10328122;28;20054;-76
2023/11/27 13:15:46;;;;;;;0.75;0.75;;;;;;;;;;10331677;28;20050;-76
2023/11/27 13:20:53;;;;;;;0.60;0.60;;;;;;;;;;10319594;28;20058;-77
2023/11/27 13:26:09;;;;;;;0.90;0.77;;;;;;;;;;10325541;28;20042;-76
2023/11/27 13:31:15;;;;;;;1.10;0.70;;;;;;;;;;10323077;28;20090;-76
2023/11/27 13:36:22;;;;;;;0.95;0.75;;;;;;;;;;10321835;28;20312;-76
2023/11/27 13:41:30;;;;;;;0.90;0.90;;;;;;;;;;10329034;28;20046;-75
2023/11/27 13:46:33;;;;;;;1.10;1.00;;;;;;;;;;10327621;28;20687;-76
2023/11/27 13:51:38;;;;;;;0.80;0.80;;;;;;;;;;10325209;28;20142;-76
2023/11/27 13:56:41;;;;;;;1.50;1.40;;;;;;;;;;10319728;28;20046;-76
2023/11/27 14:01:45;;;;;;;1.20;1.10;;;;;;;;;;10323334;28;20451;-76
2023/11/27 14:06:51;;;;;;;1.23;0.93;;;;;;;;;;10321061;28;20046;-76
2023/11/27 14:11:56;;;;;;;1.17;0.93;;;;;;;;;;10317443;28;20074;-76
2023/11/27 14:17:18;;;;;;;0.80;0.80;;;;;;;;;;10327029;28;20042;-76
2023/11/27 14:28:14;;;;;;;1.60;1.23;;;;;;;;;;10155975;29;20083;-76
2023/11/27 14:33:19;;;;;;;1.35;0.73;;;;;;;;;;10290472;28;20161;-76
2023/11/27 14:38:27;;;;;;;1.07;0.77;;;;;;;;;;10325009;28;20133;-76
2023/11/27 14:43:32;;;;;;;1.13;0.90;;;;;;;;;;10326020;28;20461;-76
2023/11/27 14:48:35;;;;;;;0.98;0.88;;;;;;;;;;10325482;28;20058;-75
2023/11/27 14:53:47;;;;;;;1.02;0.68;;;;;;;;;;10321980;28;20038;-76
2023/11/27 14:58:51;;;;;;;0.93;0.70;;;;;;;;;;10315384;28;20065;-75
2023/11/27 15:03:56;;;;;;;0.75;0.75;;;;;;;;;;10311137;28;20093;-76
2023/11/27 15:09:06;;;;;;;1.60;0.80;;;;;;;;;;10324791;28;20105;-76
2023/11/27 15:14:09;;;;;;;0.95;0.80;;;;;;;;;;10318197;28;20035;-76
2023/11/27 15:19:18;;;;;;;0.55;0.52;;;;;;;;;;10319810;28;20054;-76
2023/11/27 15:24:23;;;;;;;0.65;0.65;;;;;;;;;;10315197;28;20050;-76
2023/11/27 15:29:30;;;;;;;1.00;0.85;;;;;;;;;;10314592;28;20054;-76
2023/11/27 15:34:34;;;;;;;0.60;0.60;;;;;;;;;;10314073;28;20101;-76
2023/11/27 15:39:47;;;;;;;0.50;0.50;;;;;;;;;;10319286;28;20046;-76
2023/11/27 15:44:52;;;;;;;0.75;0.63;;;;;;;;;;10321858;28;20624;-76
2023/11/27 15:49:57;;;;;;;0.63;0.60;;;;;;;;;;10327584;28;20117;-76
2023/11/27 16:00:53;;;;;;;0.60;0.60;;;;;;;;;;10329435;28;20054;-73
2023/11/27 16:06:01;;;;;;;0.70;0.70;;;;;;;;;;10321425;28;20113;-73
2023/11/27 16:11:07;;;;;;;0.88;0.88;;;;;;;;;;10321423;28;20145;-73
2023/11/27 16:16:12;;;;;;;0.70;0.70;;;;;;;;;;10323475;28;20081;-73
2023/11/27 16:21:18;;;;;;;0.55;0.55;;;;;;;;;;10324138;28;20046;-73
2023/11/27 16:26:22;;;;;;;0.60;0.60;;;;;;;;;;10326824;28;20044;-73
2023/11/27 16:31:26;;;;;;;1.17;0.73;;;;;;;;;;10322550;28;20046;-73
2023/11/27 16:36:30;;;;;;;0.77;0.77;;;;;;;;;;12239075;22;20692;-82
2023/11/27 16:41:33;;;;;;;0.95;0.90;;;;;;;;;;10365410;28;20054;-83
2023/11/27 16:46:38;;;;;;;0.90;0.77;;;;;;;;;;10359322;28;20042;-84
2023/11/27 16:51:42;;;;;;;1.60;1.30;;;;;;;;;;10346096;28;20056;-83
2023/11/27 16:56:48;;;;;;;1.48;1.38;;;;;;;;;;10351411;28;20252;-82
2023/11/27 17:01:54;;;;;;;1.08;0.98;;;;;;;;;;10339145;28;20073;-82
2023/11/27 17:07:01;;;;;;;1.40;1.10;;;;;;;;;;10337322;28;20046;-83
2023/11/27 17:12:05;;;;;;;1.05;0.90;;;;;;;;;;10325593;28;20113;-85
2023/11/27 17:17:11;;;;;;;1.58;1.20;;;;;;;;;;10323791;28;20046;-84
2023/11/27 17:22:14;;;;;;;;;;;;;;;;;;10316288;28;20057;-85
2023/11/27 17:27:17;;;;;;;1.20;1.10;;;;;;;;;;10321219;28;19922;-84
2023/11/27 17:32:23;;;;;;;1.40;1.30;;;;;;;;;;10316094;28;20061;-85
2023/11/27 17:37:26;;;;;;;0.80;0.80;;;;;;;;;;10310371;28;20058;-87
2023/11/27 17:42:30;;;;;;;0.88;0.88;;;;;;;;;;10324778;28;20150;-85
2023/11/27 17:47:35;;;;;;;0.80;0.80;;;;;;;;;;10337444;28;20051;-85
2023/11/27 17:52:38;;;;;;;1.77;1.15;;;;;;;;;;10316411;28;20419;-84
2023/11/27 17:57:43;;;;;;;4.65;2.10;;;;;;;;;;10331391;28;20061;-87
2023/11/27 18:02:50;;;;;;;4.43;1.83;;;;;;;;;;10343487;28;20161;-87
2023/11/27 18:07:55;;;;;;;2.60;1.50;;;;;;;;;;10353811;28;20076;-84
2023/11/27 18:13:00;;;;;;;1.67;1.40;;;;;;;;;;10369312;28;20062;-84
2023/11/27 18:18:06;;;;;;;1.75;1.25;;;;;;;;;;10367062;28;20569;-86
2023/11/27 18:23:10;;;;;;;2.97;1.80;;;;;;;;;;10359507;28;20056;-86
2023/11/27 18:28:13;;;;;;;3.42;2.42;;;;;;;;;;10350215;28;20054;-87
2023/11/27 18:33:19;;;;;;;1.40;1.30;;;;;;;;;;10372146;28;20435;-85
2023/11/27 18:38:25;;;;;;;1.57;1.30;;;;;;;;;;10351895;28;20062;-85
2023/11/27 18:43:29;;;;;;;2.72;1.23;;;;;;;;;;10386576;28;20050;-85
2023/11/27 18:48:34;;;;;;;1.20;1.10;;;;;;;;;;10376122;28;20061;-86
2023/11/27 18:53:37;;;;;;;1.20;1.05;;;;;;;;;;10379100;28;20103;-84
2023/11/27 18:58:41;;;;;;;1.38;1.25;;;;;;;;;;10354043;28;20061;-86
2023/11/27 19:03:47;;;;;;;1.88;1.40;;;;;;;;;;10373355;28;20042;-87
2023/11/27 19:08:51;;;;;;;1.67;1.38;;;;;;;;;;10354884;28;20148;-88
2023/11/27 19:13:55;;;;;;;1.27;1.17;;;;;;;;;;10360095;28;20101;-84
2023/11/27 19:19:00;;;;;;;1.25;1.10;;;;;;;;;;10360709;28;20111;-85
2023/11/27 19:24:04;;;;;;;2.42;1.85;;;;;;;;;;10361367;28;20190;-85
2023/11/27 19:29:08;;;;;;;3.65;2.15;;;;;;;;;;10363355;28;20050;-85
2023/11/27 19:34:13;;;;;;;2.45;2.15;;;;;;;;;;10380681;28;20053;-86
2023/11/27 19:39:18;;;;;;;4.50;2.87;;;;;;;;;;10376554;28;20058;-86
2023/11/27 19:44:23;;;;;;;3.13;2.33;;;;;;;;;;10364504;28;20466;-89
2023/11/27 19:49:28;;;;;;;2.45;1.65;;;;;;;;;;10367664;28;20049;-88
2023/11/27 19:54:35;;;;;;;2.60;1.50;;;;;;;;;;10367918;28;20045;-87
2023/11/27 19:59:55;;;;;;;2.40;1.45;;;;;;;;;;10597738;27;20435;-76
2023/11/27 20:04:59;;;;;;;1.85;1.67;;;;;;;;;;10598555;27;20043;-75
2023/11/27 20:10:04;;;;;;;1.70;1.15;;;;;;;;;;10599308;27;20043;-75
2023/11/27 20:15:10;;;;;;;1.40;1.20;;;;;;;;;;10587406;28;20467;-75
2023/11/27 20:20:15;;;;;;;1.05;0.95;;;;;;;;;;10591306;28;20093;-74
2023/11/27 20:25:18;;;;;;;1.27;0.98;;;;;;;;;;10598406;27;20092;-74
2023/11/27 20:30:24;;;;;;;1.95;1.25;;;;;;;;;;10596861;28;20084;-74
2023/11/27 20:35:28;;;;;;;1.97;1.20;;;;;;;;;;10591532;27;20032;-74
2023/11/27 20:40:31;;;;;;;1.85;1.30;;;;;;;;;;10596535;28;20123;-74
2023/11/27 20:45:36;;;;;;;1.85;1.23;;;;;;;;;;10597617;28;20047;-74
2023/11/27 20:50:39;;;;;;;1.92;1.23;;;;;;;;;;10591585;27;20036;-74
2023/11/27 20:55:43;;;;;;;1.48;1.23;;;;;;;;;;10593406;28;20040;-74
2023/11/27 21:00:48;;;;;;;2.35;1.35;;;;;;;;;;10589885;27;20035;-73
2023/11/27 21:05:52;;;;;;;2.78;1.85;;;;;;;;;;10580341;28;20111;-74
2023/11/27 21:10:55;;;;;;;2.22;1.63;;;;;;;;;;10558645;28;20714;-73
2023/11/27 21:16:00;;;;;;;2.50;1.83;;;;;;;;;;10612734;27;20073;-73
2023/11/27 21:21:05;;;;;;;2.38;1.95;;;;;;;;;;10614004;27;20460;-73
2023/11/27 21:26:11;;;;;;;3.25;2.22;;;;;;;;;;10624085;27;20046;-73
2023/11/27 21:31:18;;;;;;;3.05;2.10;;;;;;;;;;10629245;27;20045;-73
2023/11/27 21:36:21;;;;;;;5.13;3.00;;;;;;;;;;10625635;27;20112;-73
2023/11/27 21:41:29;;;;;;;3.88;2.58;;;;;;;;;;10623655;27;20380;-73
2023/11/27 21:52:39;;;;;;;4.43;2.67;;;;;;;;;;10454963;28;20037;-72
2023/11/27 21:58:33;;;;;;;5.20;2.97;;;;;;;;;;10538110;22;20169;-75
2023/11/27 22:03:36;;;;;;;4.13;2.40;;;;;;;;;;10553396;28;20497;-74
2023/11/27 22:08:40;;;;;;;3.05;1.60;;;;;;;;;;10519835;28;20508;-75
2023/11/27 22:13:45;;;;;;;2.15;1.15;;;;;;;;;;10520637;28;20043;-75
2023/11/27 22:18:48;;;;;;;1.52;1.10;;;;;;;;;;10524358;28;20048;-74
2023/11/27 22:23:52;;;;;;;0.73;0.73;;;;;;;;;;10521610;28;20068;-75
2023/11/27 22:28:56;;;;;;;0.70;0.70;;;;;;;;;;10521217;28;20102;-75
2023/11/27 22:34:00;;;;;;;1.10;0.80;;;;;;;;;;10503453;28;20051;-75
2023/11/27 22:39:04;;;;;;;0.93;0.85;;;;;;;;;;10527544;28;20653;-75
2023/11/27 22:44:08;;;;;;;0.60;0.60;;;;;;;;;;10524875;28;20241;-74
2023/11/27 22:49:11;;;;;;;0.70;0.70;;;;;;;;;;10506950;28;20050;-75
2023/11/27 22:54:15;;;;;;;1.60;1.00;;;;;;;;;;10528295;28;20075;-74
2023/11/27 22:59:20;;;;;;;0.68;0.63;;;;;;;;;;10522052;28;20443;-74
2023/11/27 23:04:23;;;;;;;1.52;1.10;;;;;;;;;;10525522;28;20098;-74
2023/11/27 23:09:26;;;;;;;1.35;0.90;;;;;;;;;;10531050;28;20115;-74
2023/11/27 23:14:31;;;;;;;0.88;0.70;;;;;;;;;;10526944;28;20388;-74
2023/11/27 23:19:34;;;;;;;1.33;0.75;;;;;;;;;;10525787;28;20546;-74
2023/11/27 23:24:37;;;;;;;0.57;0.57;;;;;;;;;;10507284;28;20098;-74
2023/11/27 23:29:42;;;;;;;0.50;0.50;;;;;;;;;;10522271;28;20051;-74
2023/11/27 23:34:45;;;;;;;0.85;0.70;;;;;;;;;;10517646;28;20048;-74
2023/11/27 23:39:49;;;;;;;0.82;0.70;;;;;;;;;;10521822;28;20072;-74
2023/11/27 23:44:53;;;;;;;0.50;0.50;;;;;;;;;;10518294;28;20114;-74
2023/11/27 23:49:56;;;;;;;0.55;0.55;;;;;;;;;;10524212;28;20051;-74
2023/11/27 23:55:00;;;;;;;1.85;1.02;;;;;;;;;;10520443;28;20058;-74
